createdAt,value
2019-03-04T00:00:29.410Z,12.90
2019-03-04T00:02:58.539Z,13.00
2019-03-04T00:05:27.035Z,13.00
2019-03-04T00:07:55.413Z,13.00
2019-03-04T00:10:23.788Z,13.00
2019-03-04T00:12:52.074Z,13.00
2019-03-04T00:15:20.364Z,13.00
2019-03-04T00:17:48.667Z,13.00
2019-03-04T00:20:16.956Z,13.00
2019-03-04T00:22:45.282Z,13.00
2019-03-04T00:25:13.635Z,13.00
2019-03-04T00:27:41.932Z,13.00
2019-03-04T00:30:11.177Z,13.00
2019-03-04T00:32:39.458Z,13.00
2019-03-04T00:35:09.405Z,13.00
2019-03-04T00:37:37.703Z,13.00
2019-03-04T00:40:10.753Z,13.00
2019-03-04T00:42:39.099Z,13.00
2019-03-04T00:45:09.700Z,13.00
2019-03-04T00:47:37.982Z,12.90
2019-03-04T00:50:15.910Z,12.90
2019-03-04T00:52:44.221Z,12.90
2019-03-04T00:55:12.537Z,12.90
2019-03-04T00:57:40.827Z,12.90
2019-03-04T01:00:20.870Z,12.90
2019-03-04T01:02:49.153Z,12.90
2019-03-04T01:05:17.452Z,12.90
2019-03-04T01:07:45.753Z,12.90
2019-03-04T01:10:15.668Z,12.80
2019-03-04T01:12:43.943Z,12.80
2019-03-04T01:15:17.339Z,12.80
2019-03-04T01:17:45.735Z,12.80
2019-03-04T01:20:16.816Z,12.80
2019-03-04T01:22:45.128Z,12.80
2019-03-04T01:25:15.590Z,12.80
2019-03-04T01:27:43.962Z,12.80
2019-03-04T01:30:15.257Z,12.80
2019-03-04T01:32:43.560Z,12.70
2019-03-04T01:35:11.858Z,12.70
2019-03-04T01:37:40.143Z,12.70
2019-03-04T01:40:16.720Z,12.70
2019-03-04T01:42:45.026Z,12.70
2019-03-04T01:45:15.137Z,12.70
2019-03-04T01:47:43.446Z,12.60
2019-03-04T01:50:13.495Z,12.60
2019-03-04T01:52:41.793Z,12.60
2019-03-04T01:55:14.225Z,12.70
2019-03-04T01:57:42.591Z,12.60
2019-03-04T02:00:15.305Z,12.60
2019-03-04T02:02:43.757Z,12.70
2019-03-04T02:05:12.129Z,12.70
2019-03-04T02:07:40.466Z,12.70
2019-03-04T02:10:14.195Z,12.70
2019-03-04T02:12:42.613Z,12.70
2019-03-04T02:15:13.429Z,12.70
2019-03-04T02:17:41.765Z,12.70
2019-03-04T02:20:12.337Z,12.70
2019-03-04T02:22:40.632Z,12.70
2019-03-04T02:25:11.432Z,12.70
2019-03-04T02:27:42.353Z,12.80
2019-03-04T02:30:16.239Z,12.80
2019-03-04T02:32:44.520Z,12.70
2019-03-04T02:35:12.861Z,12.80
2019-03-04T02:37:41.147Z,12.70
2019-03-04T02:40:09.514Z,12.70
2019-03-04T02:42:37.899Z,12.70
2019-03-04T02:45:12.032Z,12.70
2019-03-04T02:47:40.397Z,12.60
2019-03-04T02:50:08.758Z,12.60
2019-03-04T02:52:37.138Z,12.60
2019-03-04T02:55:07.481Z,12.60
2019-03-04T02:57:35.836Z,12.50
2019-03-04T03:00:07.912Z,12.50
2019-03-04T03:02:36.232Z,12.50
2019-03-04T03:05:06.794Z,12.50
2019-03-04T03:07:35.166Z,12.50
2019-03-04T03:10:05.759Z,12.50
2019-03-04T03:12:34.117Z,12.50
2019-03-04T03:15:02.398Z,12.50
2019-03-04T03:17:30.703Z,12.50
2019-03-04T03:19:59.090Z,12.50
2019-03-04T03:22:27.380Z,12.50
2019-03-04T03:24:55.681Z,12.50
2019-03-04T03:27:23.990Z,12.50
2019-03-04T03:29:52.430Z,12.50
2019-03-04T03:32:20.710Z,12.50
2019-03-04T03:34:49.085Z,12.50
2019-03-04T03:37:17.553Z,12.50
2019-03-04T03:39:45.842Z,12.50
2019-03-04T03:42:14.367Z,12.50
2019-03-04T03:44:42.678Z,12.50
2019-03-04T03:47:10.966Z,12.50
2019-03-04T03:49:39.338Z,12.50
2019-03-04T03:52:07.716Z,12.50
2019-03-04T03:54:36.081Z,12.40
2019-03-04T03:57:05.257Z,12.50
2019-03-04T03:59:33.549Z,12.50
2019-03-04T04:02:01.864Z,12.50
2019-03-04T04:04:30.251Z,12.50
2019-03-04T04:06:58.550Z,12.50
2019-03-04T04:09:26.910Z,12.50
2019-03-04T04:11:55.266Z,12.50
2019-03-04T04:14:23.657Z,12.60
2019-03-04T04:16:52.028Z,12.60
2019-03-04T04:19:20.449Z,12.60
2019-03-04T04:21:48.737Z,12.60
2019-03-04T04:24:17.061Z,12.60
2019-03-04T04:26:45.350Z,12.60
2019-03-04T04:29:13.710Z,12.60
2019-03-04T04:31:42.964Z,12.60
2019-03-04T04:34:11.264Z,12.70
2019-03-04T04:36:39.557Z,12.60
2019-03-04T04:39:07.863Z,12.60
2019-03-04T04:41:36.265Z,12.60
2019-03-04T04:44:05.351Z,12.60
2019-03-04T04:46:48.512Z,12.60
2019-03-04T04:49:16.793Z,12.60
2019-03-04T04:51:45.086Z,12.60
2019-03-04T04:54:13.473Z,12.60
2019-03-04T04:56:41.748Z,12.50
2019-03-04T04:59:10.037Z,12.50
2019-03-04T05:01:38.350Z,12.50
2019-03-04T05:04:06.710Z,12.50
2019-03-04T05:06:35.000Z,12.50
2019-03-04T05:09:04.679Z,12.50
2019-03-04T05:11:32.962Z,12.40
2019-03-04T05:14:01.256Z,12.40
2019-03-04T05:16:29.557Z,12.40
2019-03-04T05:18:57.847Z,12.40
2019-03-04T05:21:26.138Z,12.40
2019-03-04T05:23:54.441Z,12.40
2019-03-04T05:26:22.801Z,12.40
2019-03-04T05:28:51.103Z,12.40
2019-03-04T05:31:19.419Z,12.40
2019-03-04T05:33:47.773Z,12.30
2019-03-04T05:36:16.074Z,12.30
2019-03-04T05:38:44.448Z,12.30
2019-03-04T05:41:13.679Z,12.30
2019-03-04T05:43:41.986Z,12.30
2019-03-04T05:46:10.416Z,12.20
2019-03-04T05:48:38.790Z,12.20
2019-03-04T05:51:07.093Z,12.20
2019-03-04T05:53:35.390Z,12.20
2019-03-04T05:56:04.867Z,12.20
2019-03-04T05:58:33.146Z,12.10
2019-03-04T06:01:22.110Z,12.10
2019-03-04T06:03:53.791Z,12.10
2019-03-04T06:06:23.869Z,12.10
2019-03-04T06:08:52.251Z,11.90
2019-03-04T06:11:20.532Z,10.90
2019-03-04T06:13:50.413Z,9.90
2019-03-04T06:16:18.698Z,9.30
2019-03-04T06:18:46.989Z,8.90
2019-03-04T06:21:15.353Z,8.80
2019-03-04T06:23:43.653Z,8.60
2019-03-04T06:26:11.969Z,8.50
2019-03-04T06:28:40.266Z,8.50
2019-03-04T06:31:09.329Z,8.40
2019-03-04T06:33:57.057Z,8.40
2019-03-04T06:36:25.412Z,8.30
2019-03-04T06:38:53.693Z,8.30
2019-03-04T06:41:22.773Z,8.20
2019-03-04T06:43:51.130Z,8.20
2019-03-04T06:46:19.413Z,8.20
2019-03-04T06:48:47.738Z,8.20
2019-03-04T06:51:25.488Z,8.20
2019-03-04T06:54:12.269Z,8.20
2019-03-04T06:56:54.487Z,8.20
2019-03-04T06:59:42.721Z,8.20
2019-03-04T07:02:23.477Z,8.20
2019-03-04T07:05:15.456Z,8.20
2019-03-04T07:07:43.764Z,8.20
2019-03-04T07:10:12.152Z,8.20
2019-03-04T07:12:40.470Z,8.20
2019-03-04T07:15:08.940Z,8.20
2019-03-04T07:17:37.247Z,8.20
2019-03-04T07:20:16.590Z,8.20
2019-03-04T07:22:48.471Z,8.30
2019-03-04T07:25:16.483Z,8.30
2019-03-04T07:27:44.928Z,8.40
2019-03-04T07:30:16.469Z,8.40
2019-03-04T07:32:45.966Z,8.50
2019-03-04T07:35:14.267Z,8.60
2019-03-04T07:37:42.671Z,8.70
2019-03-04T07:40:19.141Z,8.70
2019-03-04T07:42:47.436Z,8.80
2019-03-04T07:45:15.738Z,8.90
2019-03-04T07:47:44.099Z,8.90
2019-03-04T07:50:12.474Z,9.00
2019-03-04T07:52:40.861Z,9.00
2019-03-04T07:55:09.214Z,9.10
2019-03-04T07:57:37.522Z,9.10
2019-03-04T08:00:09.713Z,9.10
2019-03-04T08:02:37.992Z,9.20
2019-03-04T08:05:09.572Z,9.20
2019-03-04T08:07:46.553Z,9.20
2019-03-04T08:10:43.601Z,9.20
2019-03-04T08:13:31.439Z,9.20
2019-03-04T08:15:59.886Z,9.10
2019-03-04T08:18:28.180Z,9.10
2019-03-04T08:20:56.530Z,9.10
2019-03-04T08:23:24.846Z,9.10
2019-03-04T08:25:53.127Z,9.10
2019-03-04T08:28:21.414Z,9.10
2019-03-04T08:30:49.737Z,9.10
2019-03-04T08:33:18.017Z,9.10
2019-03-04T08:35:46.297Z,9.10
2019-03-04T08:38:14.801Z,9.10
2019-03-04T08:40:43.094Z,9.10
2019-03-04T08:43:11.433Z,9.00
2019-03-04T08:45:39.787Z,9.00
2019-03-04T08:48:08.083Z,8.90
2019-03-04T08:50:36.527Z,8.80
2019-03-04T08:53:05.406Z,8.60
2019-03-04T08:55:34.688Z,8.40
2019-03-04T08:58:03.062Z,8.40
2019-03-04T09:00:31.983Z,8.30
2019-03-04T09:03:00.293Z,8.10
2019-03-04T09:05:28.665Z,7.80
2019-03-04T09:07:57.052Z,7.30
2019-03-04T09:10:31.016Z,6.90
2019-03-04T09:12:59.297Z,6.70
2019-03-04T09:15:28.068Z,6.50
2019-03-04T09:17:56.390Z,6.40
2019-03-04T09:20:24.760Z,6.40
2019-03-04T09:22:53.922Z,6.30
2019-03-04T09:25:40.105Z,6.30
2019-03-04T09:28:08.420Z,6.30
2019-03-04T09:30:36.712Z,6.30
2019-03-04T09:33:05.413Z,6.20
2019-03-04T09:35:33.720Z,6.20
2019-03-04T09:38:02.033Z,6.20
2019-03-04T09:40:31.936Z,6.20
2019-03-04T09:43:01.207Z,6.20
2019-03-04T09:45:38.327Z,6.30
2019-03-04T09:47:59.594Z,6.30
2019-03-04T09:50:29.709Z,6.20
2019-03-04T09:52:58.001Z,6.20
2019-03-04T09:55:26.307Z,6.20
2019-03-04T09:57:54.669Z,6.20
2019-03-04T10:00:36.993Z,6.30
2019-03-04T10:03:41.692Z,6.40
2019-03-04T10:06:37.010Z,6.50
2019-03-04T10:09:26.648Z,6.70
2019-03-04T10:12:07.565Z,6.90
2019-03-04T10:15:05.210Z,7.00
2019-03-04T10:17:37.025Z,7.10
2019-03-04T10:20:23.157Z,7.20
2019-03-04T10:23:09.586Z,7.40
2019-03-04T10:25:59.456Z,7.50
2019-03-04T10:28:48.948Z,7.60
2019-03-04T10:31:31.489Z,7.50
2019-03-04T10:34:36.050Z,7.60
2019-03-04T10:37:24.510Z,7.60
2019-03-04T10:40:12.157Z,7.70
2019-03-04T10:42:49.583Z,7.80
2019-03-04T10:45:24.151Z,7.80
2019-03-04T10:47:52.790Z,7.90
2019-03-04T10:50:21.106Z,7.90
2019-03-04T10:52:49.405Z,7.80
2019-03-04T10:55:29.511Z,7.90
2019-03-04T10:58:05.756Z,7.80
2019-03-04T11:00:35.692Z,7.90
2019-03-04T11:03:04.726Z,8.00
2019-03-04T11:05:34.136Z,8.00
2019-03-04T11:08:02.435Z,8.00
2019-03-04T11:10:30.865Z,8.10
2019-03-04T11:12:59.145Z,8.10
2019-03-04T11:15:27.575Z,8.10
2019-03-04T11:17:55.869Z,8.10
2019-03-04T11:20:24.336Z,8.20
2019-03-04T11:22:53.517Z,8.20
2019-03-04T11:25:21.872Z,8.30
2019-03-04T11:27:50.258Z,8.30
2019-03-04T11:30:29.757Z,8.30
2019-03-04T11:32:58.070Z,8.40
2019-03-04T11:35:26.369Z,8.40
2019-03-04T11:37:54.645Z,8.40
2019-03-04T11:40:32.848Z,8.40
2019-03-04T11:43:01.221Z,8.40
2019-03-04T11:45:29.541Z,8.40
2019-03-04T11:47:57.837Z,8.40
2019-03-04T11:50:26.201Z,8.40
2019-03-04T11:52:54.497Z,8.40
2019-03-04T11:55:28.718Z,8.40
2019-03-04T11:57:57.049Z,8.50
2019-03-04T12:00:29.374Z,8.50
2019-03-04T12:02:57.678Z,8.50
2019-03-04T12:05:26.153Z,8.50
2019-03-04T12:07:54.522Z,8.60
2019-03-04T12:10:23.248Z,8.70
2019-03-04T12:12:51.671Z,8.90
2019-03-04T12:15:20.828Z,9.00
2019-03-04T12:17:50.737Z,9.10
2019-03-04T12:20:19.066Z,9.20
2019-03-04T12:22:47.353Z,9.30
2019-03-04T12:25:20.801Z,9.30
2019-03-04T12:27:49.106Z,9.40
2019-03-04T12:30:22.590Z,9.40
2019-03-04T12:32:51.932Z,9.30
2019-03-04T12:35:20.220Z,9.40
2019-03-04T12:37:48.594Z,9.30
2019-03-04T12:40:19.356Z,9.30
2019-03-04T12:42:47.639Z,9.20
2019-03-04T12:45:17.736Z,9.20
2019-03-04T12:47:46.017Z,9.20
2019-03-04T12:50:23.061Z,9.20
2019-03-04T12:52:51.441Z,9.20
2019-03-04T12:55:19.805Z,9.20
2019-03-04T12:57:48.455Z,9.20
2019-03-04T13:00:22.713Z,9.20
2019-03-04T13:02:57.693Z,9.20
2019-03-04T13:05:21.070Z,9.10
2019-03-04T13:07:49.673Z,9.00
2019-03-04T13:10:21.346Z,9.00
2019-03-04T13:12:49.658Z,8.90
2019-03-04T13:15:31.942Z,8.90
2019-03-04T13:18:00.285Z,8.90
2019-03-04T13:20:31.999Z,8.90
2019-03-04T13:23:00.282Z,8.90
2019-03-04T13:25:28.566Z,8.90
2019-03-04T13:27:56.870Z,8.90
2019-03-04T13:30:30.190Z,8.90
2019-03-04T13:32:59.184Z,8.90
2019-03-04T13:35:38.966Z,8.90
2019-03-04T13:38:07.309Z,8.90
2019-03-04T13:40:35.749Z,8.90
2019-03-04T13:43:04.527Z,8.90
2019-03-04T13:45:33.007Z,9.00
2019-03-04T13:48:01.343Z,9.00
2019-03-04T13:50:30.849Z,9.10
2019-03-04T13:53:00.844Z,9.10
2019-03-04T13:55:29.137Z,9.20
2019-03-04T13:57:58.476Z,9.20
2019-03-04T14:00:38.509Z,9.20
2019-03-04T14:03:06.874Z,9.20
2019-03-04T14:05:35.165Z,9.20
2019-03-04T14:08:04.369Z,9.20
2019-03-04T14:10:49.157Z,9.10
2019-03-04T14:13:17.463Z,9.10
2019-03-04T14:15:51.002Z,9.10
2019-03-04T14:18:19.396Z,9.00
2019-03-04T14:20:47.737Z,9.00
2019-03-04T14:23:16.028Z,9.00
2019-03-04T14:25:44.355Z,9.00
2019-03-04T14:28:14.286Z,8.90
2019-03-04T14:30:42.729Z,8.90
2019-03-04T14:33:11.150Z,8.90
2019-03-04T14:35:39.535Z,8.80
2019-03-04T14:38:07.858Z,8.80
2019-03-04T14:40:36.144Z,8.80
2019-03-04T14:43:15.388Z,8.80
2019-03-04T14:45:43.699Z,8.80
2019-03-04T14:48:11.995Z,8.80
2019-03-04T14:50:40.335Z,8.80
2019-03-04T14:53:08.697Z,8.80
2019-03-04T14:55:39.339Z,8.80
2019-03-04T14:58:07.811Z,8.80
2019-03-04T15:00:43.641Z,8.80
2019-03-04T15:03:20.670Z,8.80
2019-03-04T15:05:43.691Z,8.80
2019-03-04T15:08:12.080Z,8.80
2019-03-04T15:10:40.362Z,8.80
2019-03-04T15:13:09.965Z,8.80
2019-03-04T15:15:39.902Z,8.80
2019-03-04T15:18:08.265Z,8.80
2019-03-04T15:20:36.638Z,8.80
2019-03-04T15:23:05.265Z,8.80
2019-03-04T15:25:44.246Z,8.80
2019-03-04T15:28:25.904Z,8.90
2019-03-04T15:30:59.696Z,9.00
2019-03-04T15:33:27.998Z,9.10
2019-03-04T15:36:04.775Z,9.10
2019-03-04T15:38:37.812Z,9.10
2019-03-04T15:41:06.782Z,9.10
2019-03-04T15:43:35.628Z,9.00
2019-03-04T15:46:04.764Z,9.00
2019-03-04T15:48:34.717Z,9.00
2019-03-04T15:51:03.006Z,8.90
2019-03-04T15:53:31.362Z,9.00
2019-03-04T15:55:59.846Z,9.00
2019-03-04T15:58:28.145Z,9.00
2019-03-04T16:00:56.438Z,9.00
2019-03-04T16:03:24.807Z,9.00
2019-03-04T16:08:48.664Z,9.00
2019-03-04T16:11:16.976Z,9.00
2019-03-04T16:13:52.605Z,9.00
2019-03-04T16:16:15.286Z,9.00
2019-03-04T16:18:43.653Z,9.00
2019-03-04T16:21:12.100Z,9.00
2019-03-04T16:23:40.429Z,9.00
2019-03-04T16:26:11.478Z,8.90
2019-03-04T16:28:39.764Z,8.90
2019-03-04T16:31:08.066Z,8.80
2019-03-04T16:33:39.360Z,8.80
2019-03-04T16:36:06.456Z,8.80
2019-03-04T16:38:35.138Z,8.70
2019-03-04T16:41:03.460Z,8.70
2019-03-04T16:43:31.797Z,8.70
2019-03-04T16:46:00.132Z,8.60
2019-03-04T16:48:28.457Z,8.60
2019-03-04T16:50:56.771Z,8.60
2019-03-04T16:53:33.398Z,8.50
2019-03-04T16:56:01.768Z,8.50
2019-03-04T16:58:30.160Z,8.50
2019-03-04T17:01:00.084Z,8.50
2019-03-04T17:03:28.443Z,8.40
2019-03-04T17:05:56.741Z,8.40
2019-03-04T17:08:25.024Z,8.40
2019-03-04T17:10:53.345Z,8.30
2019-03-04T17:13:22.307Z,8.30
2019-03-04T17:15:50.670Z,8.30
2019-03-04T17:18:18.997Z,8.30
2019-03-04T17:20:47.352Z,8.30
2019-03-04T17:23:15.640Z,8.20
2019-03-04T17:25:44.004Z,8.30
2019-03-04T17:28:12.336Z,8.20
2019-03-04T17:30:40.645Z,8.20
2019-03-04T17:33:08.938Z,8.20
2019-03-04T17:35:37.316Z,8.20
2019-03-04T17:38:05.656Z,8.20
2019-03-04T17:40:33.958Z,8.20
2019-03-04T17:43:02.353Z,8.20
2019-03-04T17:45:30.718Z,8.20
2019-03-04T17:47:59.006Z,8.20
2019-03-04T17:50:36.677Z,8.20
2019-03-04T17:53:08.631Z,8.20
2019-03-04T17:55:36.916Z,8.20
2019-03-04T17:58:05.486Z,8.20
2019-03-04T18:00:34.703Z,8.20
2019-03-04T18:03:03.071Z,8.20
2019-03-04T18:05:31.358Z,8.10
2019-03-04T18:07:59.661Z,8.20
2019-03-04T18:10:30.765Z,8.10
2019-03-04T18:13:01.247Z,8.20
2019-03-04T18:15:37.795Z,8.10
2019-03-04T18:18:06.081Z,8.20
2019-03-04T18:20:34.945Z,8.10
2019-03-04T18:23:04.637Z,8.10
2019-03-04T18:25:57.576Z,8.10
2019-03-04T18:28:57.769Z,8.10
2019-03-04T18:31:36.949Z,8.00
2019-03-04T18:34:17.416Z,8.10
2019-03-04T18:36:54.822Z,8.00
2019-03-04T18:39:42.881Z,8.00
2019-03-04T18:42:25.951Z,7.90
2019-03-04T18:45:14.137Z,7.90
2019-03-04T18:48:00.572Z,7.90
2019-03-04T18:50:28.853Z,7.90
2019-03-04T18:52:57.499Z,7.90
2019-03-04T18:55:25.943Z,7.90
2019-03-04T18:57:54.432Z,7.90
2019-03-04T19:00:26.298Z,7.90
2019-03-04T19:02:54.717Z,7.90
2019-03-04T19:05:23.580Z,8.00
2019-03-04T19:07:51.961Z,8.00
2019-03-04T19:10:20.256Z,8.10
2019-03-04T19:12:48.553Z,8.10
2019-03-04T19:15:17.157Z,8.10
2019-03-04T19:17:45.524Z,8.20
2019-03-04T19:20:16.141Z,8.20
2019-03-04T19:22:44.434Z,8.30
2019-03-04T19:25:13.136Z,8.30
2019-03-04T19:27:41.469Z,8.40
2019-03-04T19:30:12.182Z,8.40
2019-03-04T19:32:40.545Z,8.40
2019-03-04T19:35:12.791Z,8.40
2019-03-04T19:37:41.095Z,8.40
2019-03-04T19:40:13.793Z,8.40
2019-03-04T19:42:42.326Z,8.40
2019-03-04T19:45:16.081Z,8.40
2019-03-04T19:47:44.366Z,8.40
2019-03-04T19:50:12.652Z,8.50
2019-03-04T19:52:40.943Z,8.40
2019-03-04T19:55:12.688Z,8.40
2019-03-04T19:57:41.306Z,8.40
2019-03-04T20:00:17.581Z,8.40
2019-03-04T20:02:46.411Z,8.30
2019-03-04T20:05:14.691Z,8.30
2019-03-04T20:07:43.888Z,8.30
2019-03-04T20:10:13.781Z,8.30
2019-03-04T20:12:42.056Z,8.20
2019-03-04T20:15:31.729Z,8.10
2019-03-04T20:18:00.028Z,8.10
2019-03-04T20:20:28.386Z,8.10
2019-03-04T20:22:56.699Z,8.10
2019-03-04T20:25:26.244Z,8.10
2019-03-04T20:27:54.643Z,8.00
2019-03-04T20:30:25.542Z,8.00
2019-03-04T20:32:55.393Z,8.00
2019-03-04T20:35:23.702Z,8.10
2019-03-04T20:38:01.332Z,8.00
2019-03-04T20:40:29.615Z,8.00
2019-03-04T20:42:57.914Z,8.00
2019-03-04T20:45:26.276Z,8.00
2019-03-04T20:47:54.550Z,8.00
2019-03-04T20:50:24.306Z,8.00
2019-03-04T20:52:52.742Z,8.00
2019-03-04T20:55:21.698Z,8.00
2019-03-04T20:57:50.054Z,8.00
2019-03-04T21:00:27.767Z,8.00
2019-03-04T21:02:56.346Z,8.00
2019-03-04T21:05:25.796Z,8.00
2019-03-04T21:07:54.574Z,8.00
2019-03-04T21:10:23.177Z,8.00
2019-03-04T21:12:52.521Z,8.00
2019-03-04T21:15:20.813Z,8.00
2019-03-04T21:17:49.261Z,8.00
2019-03-04T21:20:18.387Z,8.00
2019-03-04T21:22:47.407Z,8.00
2019-03-04T21:25:41.317Z,8.00
2019-03-04T21:28:15.459Z,8.00
2019-03-04T21:31:10.886Z,8.00
2019-03-04T21:33:42.504Z,8.00
2019-03-04T21:36:19.540Z,8.10
2019-03-04T21:38:47.853Z,8.10
2019-03-04T21:41:19.538Z,8.10
2019-03-04T21:43:51.108Z,8.20
2019-03-04T21:46:34.811Z,8.10
2019-03-04T21:49:22.819Z,8.20
2019-03-04T21:52:06.456Z,8.20
2019-03-04T21:54:36.449Z,8.20
2019-03-04T21:57:08.515Z,8.20
2019-03-04T21:59:36.883Z,8.20
2019-03-04T22:02:08.641Z,8.20
2019-03-04T22:04:37.893Z,8.20
2019-03-04T22:07:06.346Z,8.20
2019-03-04T22:09:34.717Z,8.20
2019-03-04T22:12:03.061Z,8.20
2019-03-04T22:14:31.373Z,8.20
2019-03-04T22:16:59.693Z,8.20
2019-03-04T22:19:27.994Z,8.20
2019-03-04T22:21:56.633Z,8.20
2019-03-04T22:24:25.093Z,8.20
2019-03-04T22:26:53.423Z,8.20
2019-03-04T22:29:21.704Z,8.20
2019-03-04T22:31:50.108Z,8.20
2019-03-04T22:34:18.451Z,8.20
2019-03-04T22:36:46.872Z,8.20
2019-03-04T22:39:15.315Z,8.20
2019-03-04T22:41:43.671Z,8.10
2019-03-04T22:44:12.084Z,8.10
2019-03-04T22:46:40.426Z,8.20
2019-03-04T22:49:08.717Z,8.10
2019-03-04T22:51:37.096Z,8.10
2019-03-04T22:54:05.620Z,8.10
2019-03-04T22:56:33.908Z,8.10
2019-03-04T22:59:02.214Z,8.10
2019-03-04T23:01:35.752Z,8.00
2019-03-04T23:04:07.497Z,8.00
2019-03-04T23:06:41.506Z,7.90
2019-03-04T23:09:13.303Z,7.90
2019-03-04T23:11:44.905Z,7.80
2019-03-04T23:14:19.063Z,7.80
2019-03-04T23:16:50.273Z,7.70
2019-03-04T23:19:18.581Z,7.70
2019-03-04T23:21:46.920Z,7.70
2019-03-04T23:24:15.247Z,7.70
2019-03-04T23:26:43.554Z,7.70
2019-03-04T23:29:11.842Z,7.70
2019-03-04T23:31:40.145Z,7.70
2019-03-04T23:34:08.430Z,7.70
2019-03-04T23:36:36.813Z,7.70
2019-03-04T23:39:07.017Z,7.70
2019-03-04T23:41:35.304Z,7.70
2019-03-04T23:44:04.407Z,7.70
2019-03-04T23:46:32.758Z,7.70
2019-03-04T23:49:01.072Z,7.60
2019-03-04T23:51:29.375Z,7.60
2019-03-04T23:53:57.668Z,7.60
2019-03-04T23:56:25.993Z,7.60
2019-03-04T23:58:54.281Z,7.50
